createdAt,value
2022-08-30T00:00:02.222Z,1020.1
2022-08-30T00:01:02.005Z,1020.2
2022-08-30T00:02:01.941Z,1020.2
2022-08-30T00:03:03.373Z,1020.1
2022-08-30T00:04:02.543Z,1020.1
2022-08-30T00:05:02.513Z,1020.1
2022-08-30T00:06:02.416Z,1020.1
2022-08-30T00:07:02.238Z,1020.1
2022-08-30T00:08:02.226Z,1020.2
2022-08-30T00:09:02.044Z,1020.2
2022-08-30T00:10:01.931Z,1020.2
2022-08-30T00:11:02.856Z,1020.1
2022-08-30T00:12:02.674Z,1020.2
2022-08-30T00:13:02.673Z,1020.2
2022-08-30T00:14:02.463Z,1020.2
2022-08-30T00:15:02.528Z,1020.2
2022-08-30T00:16:02.627Z,1020.2
2022-08-30T00:17:02.457Z,1020.2
2022-08-30T00:18:02.453Z,1020.3
2022-08-30T00:19:02.382Z,1020.2
2022-08-30T00:20:02.199Z,1020.2
2022-08-30T00:21:02.116Z,1020.2
2022-08-30T00:22:01.874Z,1020.3
2022-08-30T00:23:02.856Z,1020.3
2022-08-30T00:24:02.698Z,1020.3
2022-08-30T00:25:02.642Z,1020.3
2022-08-30T00:26:02.575Z,1020.4
2022-08-30T00:27:02.405Z,1020.2
2022-08-30T00:28:02.389Z,1020.3
2022-08-30T00:29:02.290Z,1020.3
2022-08-30T00:30:02.094Z,1020.3
2022-08-30T00:31:02.550Z,1020.3
2022-08-30T00:32:02.490Z,1020.3
2022-08-30T00:33:02.394Z,1020.3
2022-08-30T00:34:02.214Z,1020.4
2022-08-30T00:35:02.219Z,1020.3
2022-08-30T00:36:02.017Z,1020.3
2022-08-30T00:37:01.959Z,1020.3
2022-08-30T00:38:01.836Z,1020.3
2022-08-30T00:39:02.497Z,1020.2
2022-08-30T00:40:02.722Z,1020.3
2022-08-30T00:41:02.567Z,1020.2
2022-08-30T00:42:02.545Z,1020.3
2022-08-30T00:43:06.204Z,1020.3
2022-08-30T00:44:01.996Z,1020.3
2022-08-30T00:45:01.971Z,1020.3
2022-08-30T00:46:03.055Z,1020.4
2022-08-30T00:47:01.877Z,1020.4
2022-08-30T00:48:02.881Z,1020.4
2022-08-30T00:49:02.725Z,1020.4
2022-08-30T00:50:02.655Z,1020.3
2022-08-30T00:51:02.493Z,1020.3
2022-08-30T00:52:02.458Z,1020.4
2022-08-30T00:53:02.841Z,1020.3
2022-08-30T00:54:02.672Z,1020.4
2022-08-30T00:55:02.649Z,1020.4
2022-08-30T00:56:02.573Z,1020.4
2022-08-30T00:57:02.385Z,1020.3
2022-08-30T00:58:05.418Z,1020.4
2022-08-30T00:59:02.353Z,1020.4
2022-08-30T01:00:02.212Z,1020.4
2022-08-30T01:01:02.517Z,1020.4
2022-08-30T01:02:02.622Z,1020.4
2022-08-30T01:03:02.822Z,1020.3
2022-08-30T01:04:02.984Z,1020.4
2022-08-30T01:05:01.943Z,1020.3
2022-08-30T01:06:02.847Z,1020.2
2022-08-30T01:07:02.674Z,1020.3
2022-08-30T01:08:02.617Z,1020.3
2022-08-30T01:09:02.539Z,1020.3
2022-08-30T01:10:02.354Z,1020.3
2022-08-30T01:11:02.281Z,1020.3
2022-08-30T01:12:02.120Z,1020.3
2022-08-30T01:13:02.009Z,1020.3
2022-08-30T01:14:01.812Z,1020.2
2022-08-30T01:15:02.796Z,1020.3
2022-08-30T01:16:04.001Z,1020.3
2022-08-30T01:17:01.868Z,1020.2
2022-08-30T01:18:02.863Z,1020.3
2022-08-30T01:19:02.693Z,1020.3
2022-08-30T01:20:02.616Z,1020.3
2022-08-30T01:21:02.431Z,1020.3
2022-08-30T01:22:02.384Z,1020.2
2022-08-30T01:23:02.290Z,1020.3
2022-08-30T01:24:02.147Z,1020.2
2022-08-30T01:25:02.059Z,1020.2
2022-08-30T01:26:01.852Z,1020.3
2022-08-30T01:27:02.827Z,1020.3
2022-08-30T01:28:02.662Z,1020.2
2022-08-30T01:29:02.632Z,1020.2
2022-08-30T01:30:02.533Z,1020.3
2022-08-30T01:31:02.564Z,1020.2
2022-08-30T01:32:02.615Z,1020.3
2022-08-30T01:33:02.557Z,1020.3
2022-08-30T01:34:02.384Z,1020.2
2022-08-30T01:35:02.372Z,1020.3
2022-08-30T01:36:02.311Z,1020.3
2022-08-30T01:37:02.122Z,1020.2
2022-08-30T01:38:02.064Z,1020.3
2022-08-30T01:39:02.397Z,1020.3
2022-08-30T01:40:02.499Z,1020.3
2022-08-30T01:41:02.503Z,1020.2
2022-08-30T01:42:02.421Z,1020.3
2022-08-30T01:43:02.238Z,1020.3
2022-08-30T01:44:02.179Z,1020.3
2022-08-30T01:45:01.965Z,1020.3
2022-08-30T01:46:02.262Z,1020.3
2022-08-30T01:47:02.170Z,1020.3
2022-08-30T01:48:06.993Z,1020.3
2022-08-30T01:49:02.520Z,1020.3
2022-08-30T01:50:02.492Z,1020.3
2022-08-30T01:51:02.458Z,1020.2
2022-08-30T01:52:02.281Z,1020.2
2022-08-30T01:53:02.188Z,1020.2
2022-08-30T01:54:01.992Z,1020.2
2022-08-30T01:55:01.944Z,1020.3
2022-08-30T01:56:02.883Z,1020.2
2022-08-30T01:57:02.696Z,1020.2
2022-08-30T01:58:02.715Z,1020.2
2022-08-30T01:59:03.982Z,1020.3
2022-08-30T02:00:01.809Z,1020.3
2022-08-30T02:01:01.961Z,1020.3
2022-08-30T02:02:01.874Z,1020.2
2022-08-30T02:03:02.809Z,1020.2
2022-08-30T02:04:02.923Z,1020.3
2022-08-30T02:05:02.867Z,1020.3
2022-08-30T02:06:02.672Z,1020.3
2022-08-30T02:07:02.679Z,1020.2
2022-08-30T02:08:02.582Z,1020.2
2022-08-30T02:09:02.382Z,1020.2
2022-08-30T02:10:02.378Z,1020.2
2022-08-30T02:11:02.287Z,1020.2
2022-08-30T02:12:02.098Z,1020.2
2022-08-30T02:13:02.006Z,1020.2
2022-08-30T02:14:01.808Z,1020.2
2022-08-30T02:15:02.789Z,1020.2
2022-08-30T02:16:02.686Z,1020.2
2022-08-30T02:17:02.943Z,1020.2
2022-08-30T02:18:02.097Z,1020.2
2022-08-30T02:19:01.950Z,1020.2
2022-08-30T02:20:02.893Z,1020.2
2022-08-30T02:21:02.715Z,1020.1
2022-08-30T02:22:02.647Z,1020.1
2022-08-30T02:23:02.425Z,1020.2
2022-08-30T02:24:02.431Z,1020.2
2022-08-30T02:25:02.315Z,1020.1
2022-08-30T02:26:02.141Z,1020.1
2022-08-30T02:27:02.048Z,1020.2
2022-08-30T02:28:01.860Z,1020.1
2022-08-30T02:29:02.183Z,1020.1
2022-08-30T02:30:01.997Z,1020.1
2022-08-30T02:31:02.555Z,1020.1
2022-08-30T02:32:02.625Z,1020.1
2022-08-30T02:33:02.438Z,1020
2022-08-30T02:34:02.404Z,1020.1
2022-08-30T02:35:02.294Z,1020.1
2022-08-30T02:36:02.107Z,1020.1
2022-08-30T02:37:02.057Z,1020.1
2022-08-30T02:38:01.850Z,1020
2022-08-30T02:39:02.815Z,1020.1
2022-08-30T02:40:02.861Z,1020.1
2022-08-30T02:41:02.840Z,1020.1
2022-08-30T02:42:02.664Z,1020
2022-08-30T02:43:02.629Z,1020.1
2022-08-30T02:44:02.555Z,1020
2022-08-30T02:45:02.418Z,1020.1
2022-08-30T02:46:02.798Z,1020.1
2022-08-30T02:47:02.911Z,1020.1
2022-08-30T02:48:02.738Z,1020.1
2022-08-30T02:49:34.175Z,1020.1
2022-08-30T02:50:02.123Z,1020
2022-08-30T02:51:02.090Z,1020
2022-08-30T02:52:01.871Z,1020.1
2022-08-30T02:53:02.790Z,1020.1
2022-08-30T02:54:02.602Z,1020
2022-08-30T02:55:02.647Z,1020.1
2022-08-30T02:56:02.527Z,1020
2022-08-30T02:57:02.332Z,1020
2022-08-30T02:58:02.247Z,1020.1
2022-08-30T02:59:02.108Z,1020.1
2022-08-30T03:00:01.927Z,1020.1
2022-08-30T03:01:02.065Z,1020.1
2022-08-30T03:02:02.004Z,1020.2
2022-08-30T03:03:01.792Z,1020.1
2022-08-30T03:04:02.989Z,1020.1
2022-08-30T03:05:01.837Z,1020.1
2022-08-30T03:06:02.752Z,1020.1
2022-08-30T03:07:02.567Z,1020.1
2022-08-30T03:08:02.533Z,1020
2022-08-30T03:09:03.801Z,1020.1
2022-08-30T03:10:02.622Z,1020.1
2022-08-30T03:11:02.588Z,1020.1
2022-08-30T03:12:02.505Z,1020.1
2022-08-30T03:13:02.330Z,1020.1
2022-08-30T03:14:02.197Z,1020.1
2022-08-30T03:15:02.135Z,1020.1
2022-08-30T03:16:02.239Z,1020.1
2022-08-30T03:17:02.223Z,1020.2
2022-08-30T03:18:02.015Z,1020.1
2022-08-30T03:19:01.988Z,1020.1
2022-08-30T03:20:01.803Z,1020.1
2022-08-30T03:21:02.769Z,1020.1
2022-08-30T03:22:02.636Z,1020.2
2022-08-30T03:23:02.575Z,1020.2
2022-08-30T03:24:02.501Z,1020.1
2022-08-30T03:25:02.322Z,1020.1
2022-08-30T03:26:02.270Z,1020.2
2022-08-30T03:27:02.088Z,1020.1
2022-08-30T03:28:01.998Z,1020.2
2022-08-30T03:29:01.821Z,1020.1
2022-08-30T03:30:02.808Z,1020.1
2022-08-30T03:31:02.370Z,1020.1
2022-08-30T03:32:02.628Z,1020.2
2022-08-30T03:33:07.334Z,1020.2
2022-08-30T03:34:02.140Z,1020.2
2022-08-30T03:35:02.109Z,1020.1
2022-08-30T03:36:01.890Z,1020.2
2022-08-30T03:37:02.865Z,1020.2
2022-08-30T03:38:02.782Z,1020.1
2022-08-30T03:39:02.665Z,1020.2
2022-08-30T03:40:03.048Z,1020.2
2022-08-30T03:41:02.548Z,1020.2
2022-08-30T03:42:04.139Z,1020.3
2022-08-30T03:43:01.896Z,1020.2
2022-08-30T03:44:01.896Z,1020.2
2022-08-30T03:45:02.884Z,1020.3
2022-08-30T03:46:02.745Z,1020.3
2022-08-30T03:47:02.726Z,1020.3
2022-08-30T03:48:02.542Z,1020.3
2022-08-30T03:49:02.573Z,1020.3
2022-08-30T03:50:02.504Z,1020.3
2022-08-30T03:51:06.578Z,1020.3
2022-08-30T03:52:02.401Z,1020.3
2022-08-30T03:53:02.367Z,1020.3
2022-08-30T03:54:02.273Z,1020.3
2022-08-30T03:55:02.096Z,1020.3
2022-08-30T03:56:01.954Z,1020.3
2022-08-30T03:57:02.830Z,1020.3
2022-08-30T03:58:02.663Z,1020.3
2022-08-30T03:59:02.748Z,1020.3
2022-08-30T04:00:02.688Z,1020.3
2022-08-30T04:01:02.608Z,1020.3
2022-08-30T04:02:02.706Z,1020.3
2022-08-30T04:03:02.656Z,1020.3
2022-08-30T04:04:04.132Z,1020.3
2022-08-30T04:05:01.951Z,1020.2
2022-08-30T04:06:02.882Z,1020.3
2022-08-30T04:07:02.685Z,1020.3
2022-08-30T04:08:02.675Z,1020.3
2022-08-30T04:09:02.513Z,1020.3
2022-08-30T04:10:02.506Z,1020.3
2022-08-30T04:11:05.620Z,1020.3
2022-08-30T04:12:02.438Z,1020.3
2022-08-30T04:13:02.408Z,1020.4
2022-08-30T04:14:02.303Z,1020.4
2022-08-30T04:15:02.101Z,1020.4
2022-08-30T04:16:02.382Z,1020.4
2022-08-30T04:17:02.409Z,1020.5
2022-08-30T04:18:02.313Z,1020.4
2022-08-30T04:19:02.105Z,1020.5
2022-08-30T04:20:02.086Z,1020.5
2022-08-30T04:21:01.897Z,1020.5
2022-08-30T04:22:02.871Z,1020.4
2022-08-30T04:23:02.719Z,1020.6
2022-08-30T04:24:02.719Z,1020.5
2022-08-30T04:25:02.600Z,1020.5
2022-08-30T04:26:02.533Z,1020.5
2022-08-30T04:27:02.467Z,1020.4
2022-08-30T04:28:02.327Z,1020.5
2022-08-30T04:29:02.241Z,1020.5
2022-08-30T04:30:02.020Z,1020.5
2022-08-30T04:31:02.213Z,1020.5
2022-08-30T04:32:02.294Z,1020.5
2022-08-30T04:33:02.127Z,1020.5
2022-08-30T04:34:02.039Z,1020.5
2022-08-30T04:35:01.824Z,1020.6
2022-08-30T04:36:02.797Z,1020.6
2022-08-30T04:37:02.367Z,1020.5
2022-08-30T04:38:02.215Z,1020.5
2022-08-30T04:39:01.993Z,1020.6
2022-08-30T04:40:02.149Z,1020.5
2022-08-30T04:41:01.933Z,1020.5
2022-08-30T04:42:01.908Z,1020.5
2022-08-30T04:43:02.821Z,1020.6
2022-08-30T04:44:02.650Z,1020.6
2022-08-30T04:45:02.685Z,1020.6
2022-08-30T04:46:02.842Z,1020.6
2022-08-30T04:47:02.910Z,1020.6
2022-08-30T04:48:02.718Z,1020.6
2022-08-30T04:49:02.721Z,1020.6
2022-08-30T04:50:02.549Z,1020.6
2022-08-30T04:51:02.634Z,1020.7
2022-08-30T04:52:02.557Z,1020.7
2022-08-30T04:53:02.400Z,1020.7
2022-08-30T04:54:02.416Z,1020.7
2022-08-30T04:55:02.327Z,1020.7
2022-08-30T04:56:02.128Z,1020.8
2022-08-30T04:57:02.086Z,1020.7
2022-08-30T04:58:01.853Z,1020.7
2022-08-30T04:59:02.854Z,1020.7
2022-08-30T05:00:02.693Z,1020.7
2022-08-30T05:01:03.239Z,1020.7
2022-08-30T05:02:02.580Z,1020.7
2022-08-30T05:03:02.531Z,1020.7
2022-08-30T05:04:02.417Z,1020.7
2022-08-30T05:05:02.363Z,1020.6
2022-08-30T05:06:02.162Z,1020.7
2022-08-30T05:07:02.148Z,1020.7
2022-08-30T05:08:01.974Z,1020.7
2022-08-30T05:09:01.966Z,1020.7
2022-08-30T05:10:01.757Z,1020.7
2022-08-30T05:11:02.736Z,1020.7
2022-08-30T05:12:02.558Z,1020.8
2022-08-30T05:13:02.553Z,1020.7
2022-08-30T05:14:02.488Z,1020.7
2022-08-30T05:15:02.358Z,1020.8
2022-08-30T05:16:02.886Z,1020.8
2022-08-30T05:17:03.297Z,1020.8
2022-08-30T05:18:02.788Z,1020.8
2022-08-30T05:19:02.683Z,1020.8
2022-08-30T05:20:02.485Z,1020.8
2022-08-30T05:21:02.462Z,1020.9
2022-08-30T05:22:02.373Z,1020.8
2022-08-30T05:23:02.175Z,1020.9
2022-08-30T05:24:02.198Z,1020.9
2022-08-30T05:25:02.124Z,1020.9
2022-08-30T05:26:01.922Z,1020.9
2022-08-30T05:27:01.797Z,1020.9
2022-08-30T05:28:02.749Z,1020.9
2022-08-30T05:29:02.580Z,1020.8
2022-08-30T05:30:02.635Z,1020.9
2022-08-30T05:31:02.697Z,1020.8
2022-08-30T05:32:02.524Z,1020.9
2022-08-30T05:33:02.563Z,1020.9
2022-08-30T05:34:02.489Z,1020.9
2022-08-30T05:35:02.320Z,1021
2022-08-30T05:36:02.260Z,1020.9
2022-08-30T05:37:02.605Z,1020.9
2022-08-30T05:38:04.344Z,1020.9
2022-08-30T05:39:06.237Z,1020.9
2022-08-30T05:40:03.105Z,1021
2022-08-30T05:41:11.204Z,1021
2022-08-30T05:42:02.391Z,1021
2022-08-30T05:43:02.195Z,1021
2022-08-30T05:44:02.145Z,1020.9
2022-08-30T05:45:01.989Z,1020.9
2022-08-30T05:46:02.288Z,1020.9
2022-08-30T05:47:02.343Z,1021
2022-08-30T05:48:01.866Z,1021
2022-08-30T05:49:02.813Z,1020.9
2022-08-30T05:50:02.719Z,1020.9
2022-08-30T05:51:02.592Z,1021
2022-08-30T05:52:02.637Z,1021
2022-08-30T05:53:02.498Z,1021
2022-08-30T05:54:05.832Z,1021
2022-08-30T05:55:02.738Z,1021.1
2022-08-30T05:56:02.560Z,1021
2022-08-30T05:57:02.521Z,1021
2022-08-30T05:58:02.470Z,1021
2022-08-30T05:59:02.261Z,1021
2022-08-30T06:00:02.241Z,1021.1
2022-08-30T06:01:02.164Z,1021.1
2022-08-30T06:02:02.185Z,1021.1
2022-08-30T06:03:02.322Z,1021
2022-08-30T06:04:04.934Z,1021
2022-08-30T06:05:02.758Z,1021
2022-08-30T06:06:02.714Z,1021.1
2022-08-30T06:07:02.523Z,1021
2022-08-30T06:08:02.520Z,1021.1
2022-08-30T06:09:06.269Z,1021
2022-08-30T06:10:02.066Z,1021.1
2022-08-30T06:11:01.987Z,1021
2022-08-30T06:12:01.802Z,1021
2022-08-30T06:13:02.805Z,1021.1
2022-08-30T06:14:02.665Z,1021
2022-08-30T06:15:02.558Z,1021.1
2022-08-30T06:16:02.730Z,1021.1
2022-08-30T06:17:02.579Z,1021.1
2022-08-30T06:18:02.527Z,1021.2
2022-08-30T06:19:02.447Z,1021.1
2022-08-30T06:20:02.335Z,1021.1
2022-08-30T06:21:02.178Z,1021.1
2022-08-30T06:22:01.977Z,1021.1
2022-08-30T06:23:01.894Z,1021.2
2022-08-30T06:24:02.832Z,1021.1
2022-08-30T06:25:02.701Z,1021.1
2022-08-30T06:26:02.646Z,1021.1
2022-08-30T06:27:02.519Z,1021.2
2022-08-30T06:28:02.519Z,1021.1
2022-08-30T06:29:02.441Z,1021.1
2022-08-30T06:30:02.248Z,1021.1
2022-08-30T06:31:02.274Z,1021.1
2022-08-30T06:32:02.218Z,1021.1
2022-08-30T06:33:02.058Z,1021.1
2022-08-30T06:34:01.967Z,1021.1
2022-08-30T06:35:01.778Z,1021.1
2022-08-30T06:36:06.495Z,1021.1
2022-08-30T06:37:02.308Z,1021.2
2022-08-30T06:38:02.239Z,1021.1
2022-08-30T06:39:02.003Z,1021.1
2022-08-30T06:40:02.244Z,1021.1
2022-08-30T06:41:02.112Z,1021.1
2022-08-30T06:42:02.155Z,1021.1
2022-08-30T06:43:01.938Z,1021.1
2022-08-30T06:44:01.919Z,1021.1
2022-08-30T06:45:11.342Z,1021.1
2022-08-30T06:46:02.430Z,1021.1
2022-08-30T06:47:02.729Z,1021.2
2022-08-30T06:48:02.747Z,1021.2
2022-08-30T06:49:02.572Z,1021.2
2022-08-30T06:50:02.607Z,1021.2
2022-08-30T06:51:03.407Z,1021.2
2022-08-30T06:52:04.461Z,1021.2
2022-08-30T06:53:03.415Z,1021.2
2022-08-30T06:54:03.661Z,1021.3
2022-08-30T06:55:02.568Z,1021.2
2022-08-30T06:56:02.410Z,1021.3
2022-08-30T06:57:02.268Z,1021.2
2022-08-30T06:58:02.119Z,1021.2
2022-08-30T06:59:01.993Z,1021.3
2022-08-30T07:00:01.771Z,1021.3
2022-08-30T07:01:01.852Z,1021.3
2022-08-30T07:02:03.107Z,1021.3
2022-08-30T07:03:02.362Z,1021.4
2022-08-30T07:04:02.278Z,1021.3
2022-08-30T07:05:02.070Z,1021.3
2022-08-30T07:06:02.091Z,1021.4
2022-08-30T07:07:01.877Z,1021.3
2022-08-30T07:08:02.964Z,1021.4
2022-08-30T07:09:02.347Z,1021.3
2022-08-30T07:10:02.277Z,1021.4
2022-08-30T07:11:02.068Z,1021.3
2022-08-30T07:12:01.975Z,1021.4
2022-08-30T07:13:01.787Z,1021.3
2022-08-30T07:14:02.775Z,1021.4
2022-08-30T07:15:02.582Z,1021.4
2022-08-30T07:16:02.628Z,1021.3
2022-08-30T07:17:02.603Z,1021.3
2022-08-30T07:18:02.517Z,1021.3
2022-08-30T07:19:02.342Z,1021.3
2022-08-30T07:20:02.271Z,1021.3
2022-08-30T07:21:02.080Z,1021.4
2022-08-30T07:22:02.000Z,1021.4
2022-08-30T07:23:01.820Z,1021.3
2022-08-30T07:24:02.800Z,1021.4
2022-08-30T07:25:02.630Z,1021.4
2022-08-30T07:26:02.530Z,1021.4
2022-08-30T07:27:02.461Z,1021.4
2022-08-30T07:28:02.269Z,1021.4
2022-08-30T07:29:02.159Z,1021.3
2022-08-30T07:30:01.990Z,1021.3
2022-08-30T07:31:01.956Z,1021.4
2022-08-30T07:32:01.874Z,1021.4
2022-08-30T07:33:02.811Z,1021.3
2022-08-30T07:34:02.628Z,1021.3
2022-08-30T07:35:02.623Z,1021.3
2022-08-30T07:36:02.903Z,1021.3
2022-08-30T07:37:02.802Z,1021.3
2022-08-30T07:38:02.708Z,1021.3
2022-08-30T07:39:02.511Z,1021.3
2022-08-30T07:40:02.657Z,1021.3
2022-08-30T07:41:02.626Z,1021.3
2022-08-30T07:42:04.321Z,1021.3
2022-08-30T07:43:02.142Z,1021.4
2022-08-30T07:44:02.083Z,1021.4
2022-08-30T07:45:01.859Z,1021.3
2022-08-30T07:46:01.979Z,1021.3
2022-08-30T07:47:01.926Z,1021.3
2022-08-30T07:48:02.875Z,1021.3
2022-08-30T07:49:11.524Z,1021.3
2022-08-30T07:50:02.419Z,1021.3
2022-08-30T07:51:05.913Z,1021.3
2022-08-30T07:52:02.827Z,1021.3
2022-08-30T07:53:06.644Z,1021.3
2022-08-30T07:54:01.816Z,1021.3
2022-08-30T07:55:02.801Z,1021.4
2022-08-30T07:56:05.419Z,1021.3
2022-08-30T07:57:02.233Z,1021.3
2022-08-30T07:59:01.941Z,1021.4
2022-08-30T08:00:01.942Z,1021.4
2022-08-30T08:01:01.828Z,1021.3
2022-08-30T08:02:03.110Z,1021.4
2022-08-30T08:03:02.387Z,1021.5
2022-08-30T08:04:02.350Z,1021.5
2022-08-30T08:05:02.160Z,1021.4
2022-08-30T08:06:02.062Z,1021.4
2022-08-30T08:07:01.848Z,1021.5
2022-08-30T08:08:02.849Z,1021.5
2022-08-30T08:09:02.777Z,1021.5
2022-08-30T08:10:03.502Z,1021.5
2022-08-30T08:11:02.337Z,1021.6
2022-08-30T08:12:02.256Z,1021.6
2022-08-30T08:13:02.091Z,1021.5
2022-08-30T08:14:02.197Z,1021.5
2022-08-30T08:15:09.273Z,1021.5
2022-08-30T08:16:02.961Z,1021.5
2022-08-30T08:17:01.924Z,1021.5
2022-08-30T08:18:02.838Z,1021.5
2022-08-30T08:19:02.606Z,1021.5
2022-08-30T08:20:02.622Z,1021.5
2022-08-30T08:21:02.570Z,1021.4
2022-08-30T08:22:22.132Z,1021.5
2022-08-30T08:23:01.908Z,1021.5
2022-08-30T08:24:01.902Z,1021.5
2022-08-30T08:25:02.876Z,1021.5
2022-08-30T08:26:02.747Z,1021.5
2022-08-30T08:27:02.686Z,1021.5
2022-08-30T08:28:02.478Z,1021.5
2022-08-30T08:29:02.441Z,1021.5
2022-08-30T08:30:02.384Z,1021.5
2022-08-30T08:31:02.157Z,1021.5
2022-08-30T08:32:02.064Z,1021.6
2022-08-30T08:33:01.885Z,1021.5
2022-08-30T08:34:04.069Z,1021.5
2022-08-30T08:35:01.873Z,1021.5
2022-08-30T08:36:09.728Z,1021.5
2022-08-30T08:37:02.581Z,1021.5
2022-08-30T08:38:02.662Z,1021.6
2022-08-30T08:39:02.424Z,1021.6
2022-08-30T08:40:02.536Z,1021.5
2022-08-30T08:41:02.481Z,1021.5
2022-08-30T08:42:02.299Z,1021.5
2022-08-30T08:43:02.281Z,1021.5
2022-08-30T08:44:02.068Z,1021.6
2022-08-30T08:45:11.379Z,1021.5
2022-08-30T08:46:03.830Z,1021.6
2022-08-30T08:47:03.975Z,1021.6
2022-08-30T08:48:04.818Z,1021.6
2022-08-30T08:49:02.915Z,1021.6
2022-08-30T08:50:01.793Z,1021.6
2022-08-30T08:51:03.300Z,1021.6
2022-08-30T08:52:02.119Z,1021.6
2022-08-30T08:53:02.130Z,1021.7
2022-08-30T08:54:04.751Z,1021.6
2022-08-30T08:55:02.643Z,1021.7
2022-08-30T08:56:02.569Z,1021.7
2022-08-30T08:57:02.488Z,1021.7
2022-08-30T08:58:02.280Z,1021.7
2022-08-30T08:59:02.273Z,1021.7
2022-08-30T09:00:02.112Z,1021.7
2022-08-30T09:01:02.115Z,1021.6
2022-08-30T09:02:02.237Z,1021.6
2022-08-30T09:03:02.018Z,1021.7
2022-08-30T09:04:01.997Z,1021.6
2022-08-30T09:05:02.080Z,1021.7
2022-08-30T09:06:02.049Z,1021.7
2022-08-30T09:07:01.835Z,1021.6
2022-08-30T09:08:10.318Z,1021.7
2022-08-30T09:09:03.560Z,1021.6
2022-08-30T09:10:02.404Z,1021.7
2022-08-30T09:11:02.336Z,1021.6
2022-08-30T09:12:02.441Z,1021.6
2022-08-30T09:13:05.029Z,1021.6
2022-08-30T09:14:02.475Z,1021.6
2022-08-30T09:15:02.432Z,1021.6
2022-08-30T09:16:03.495Z,1021.6
2022-08-30T09:17:03.831Z,1021.6
2022-08-30T09:18:04.120Z,1021.6
2022-08-30T09:19:02.537Z,1021.6
2022-08-30T09:20:02.468Z,1021.6
2022-08-30T09:21:02.323Z,1021.6
2022-08-30T09:22:02.247Z,1021.6
2022-08-30T09:23:02.075Z,1021.7
2022-08-30T09:24:03.822Z,1021.7
2022-08-30T09:25:05.247Z,1021.6
2022-08-30T09:26:02.330Z,1021.7
2022-08-30T09:27:02.270Z,1021.7
2022-08-30T09:28:02.430Z,1021.6
2022-08-30T09:29:02.216Z,1021.7
2022-08-30T09:30:02.140Z,1021.7
2022-08-30T09:31:02.132Z,1021.6
2022-08-30T09:32:26.020Z,1021.6
2022-08-30T09:33:01.858Z,1021.6
2022-08-30T09:34:03.049Z,1021.6
2022-08-30T09:35:01.836Z,1021.6
2022-08-30T09:36:02.836Z,1021.6
2022-08-30T09:37:05.318Z,1021.5
2022-08-30T09:38:02.193Z,1021.6
2022-08-30T09:39:02.311Z,1021.6
2022-08-30T09:40:02.365Z,1021.6
2022-08-30T09:41:02.191Z,1021.6
2022-08-30T09:42:02.053Z,1021.6
2022-08-30T09:43:02.020Z,1021.6
2022-08-30T09:44:01.918Z,1021.6
2022-08-30T09:45:04.776Z,1021.6
2022-08-30T09:46:02.124Z,1021.6
2022-08-30T09:47:01.998Z,1021.5
2022-08-30T09:48:01.818Z,1021.6
2022-08-30T09:49:02.738Z,1021.5
2022-08-30T09:50:02.564Z,1021.6
2022-08-30T09:51:02.467Z,1021.6
2022-08-30T09:52:02.328Z,1021.6
2022-08-30T09:53:02.026Z,1021.5
2022-08-30T09:54:19.166Z,1021.5
2022-08-30T09:55:01.955Z,1021.6
2022-08-30T09:56:01.853Z,1021.6
2022-08-30T09:57:02.715Z,1021.6
2022-08-30T09:58:02.578Z,1021.6
2022-08-30T09:59:03.444Z,1021.6
2022-08-30T10:00:02.350Z,1021.6
2022-08-30T10:01:02.683Z,1021.6
2022-08-30T10:02:02.754Z,1021.6
2022-08-30T10:03:02.626Z,1021.6
2022-08-30T10:04:02.417Z,1021.5
2022-08-30T10:05:02.431Z,1021.4
2022-08-30T10:06:03.418Z,1021.5
2022-08-30T10:07:02.215Z,1021.5
2022-08-30T10:08:02.072Z,1021.5
2022-08-30T10:09:01.874Z,1021.5
2022-08-30T10:10:02.767Z,1021.5
2022-08-30T10:11:02.881Z,1021.5
2022-08-30T10:12:04.393Z,1021.5
2022-08-30T10:13:02.213Z,1021.4
2022-08-30T10:14:03.432Z,1021.4
2022-08-30T10:15:02.272Z,1021.3
2022-08-30T10:16:02.406Z,1021.4
2022-08-30T10:17:06.199Z,1021.4
2022-08-30T10:18:01.963Z,1021.3
2022-08-30T10:19:06.686Z,1021.3
2022-08-30T10:20:02.532Z,1021.4
2022-08-30T10:21:02.416Z,1021.4
2022-08-30T10:22:03.125Z,1021.4
2022-08-30T10:23:01.922Z,1021.3
2022-08-30T10:24:01.800Z,1021.4
2022-08-30T10:25:02.699Z,1021.4
2022-08-30T10:26:02.582Z,1021.4
2022-08-30T10:27:02.517Z,1021.4
2022-08-30T10:28:03.943Z,1021.4
2022-08-30T10:29:02.762Z,1021.4
2022-08-30T10:30:02.687Z,1021.4
2022-08-30T10:31:02.706Z,1021.3
2022-08-30T10:32:02.709Z,1021.3
2022-08-30T10:33:02.528Z,1021.3
2022-08-30T10:34:03.101Z,1021.4
2022-08-30T10:35:01.887Z,1021.2
2022-08-30T10:36:02.887Z,1021.3
2022-08-30T10:37:02.714Z,1021.3
2022-08-30T10:38:03.173Z,1021.3
2022-08-30T10:39:01.941Z,1021.3
2022-08-30T10:40:02.061Z,1021.3
2022-08-30T10:41:02.323Z,1021.3
2022-08-30T10:42:02.390Z,1021.3
2022-08-30T10:43:02.530Z,1021.2
2022-08-30T10:44:03.007Z,1021.3
2022-08-30T10:45:01.840Z,1021.2
2022-08-30T10:46:02.044Z,1021.2
2022-08-30T10:47:02.213Z,1021.2
2022-08-30T10:48:02.543Z,1021.1
2022-08-30T10:49:02.356Z,1021.2
2022-08-30T10:50:04.969Z,1021.1
2022-08-30T10:51:01.904Z,1021.1
2022-08-30T10:52:02.813Z,1021.2
2022-08-30T10:53:02.111Z,1021.1
2022-08-30T10:54:02.016Z,1021.1
2022-08-30T10:55:01.837Z,1021.2
2022-08-30T10:56:02.814Z,1021.3
2022-08-30T10:57:02.626Z,1021.2
2022-08-30T10:58:02.582Z,1021.2
2022-08-30T10:59:02.520Z,1021.2
2022-08-30T11:00:06.612Z,1021.2
2022-08-30T11:01:06.204Z,1021.1
2022-08-30T11:02:02.178Z,1021
2022-08-30T11:03:01.996Z,1021.1
2022-08-30T11:04:01.965Z,1021.1
2022-08-30T11:05:05.295Z,1021.1
2022-08-30T11:06:02.604Z,1021
2022-08-30T11:07:02.055Z,1021
2022-08-30T11:08:02.939Z,1021.1
2022-08-30T11:09:02.754Z,1021
2022-08-30T11:10:02.758Z,1021.1
2022-08-30T11:11:02.590Z,1021.1
2022-08-30T11:12:02.600Z,1021
2022-08-30T11:13:02.695Z,1021.1
2022-08-30T11:14:06.299Z,1021.1
2022-08-30T11:15:02.552Z,1021.1
2022-08-30T11:16:02.206Z,1021.1
2022-08-30T11:17:02.749Z,1021
2022-08-30T11:18:02.571Z,1021.1
2022-08-30T11:19:03.385Z,1021.1
2022-08-30T11:20:02.199Z,1021
2022-08-30T11:21:02.159Z,1021
2022-08-30T11:22:02.385Z,1021
2022-08-30T11:23:02.238Z,1021.1
2022-08-30T11:24:02.171Z,1021.1
2022-08-30T11:25:01.992Z,1021
2022-08-30T11:26:03.538Z,1021.1
2022-08-30T11:27:02.472Z,1021
2022-08-30T11:28:02.347Z,1021
2022-08-30T11:29:02.210Z,1021
2022-08-30T11:30:02.824Z,1021.1
2022-08-30T11:31:05.729Z,1021
2022-08-30T11:32:03.540Z,1021
2022-08-30T11:33:02.723Z,1021
2022-08-30T11:34:02.824Z,1021
2022-08-30T11:35:02.095Z,1020.9
2022-08-30T11:36:03.572Z,1020.9
2022-08-30T11:37:02.485Z,1020.9
2022-08-30T11:38:02.306Z,1020.9
2022-08-30T11:39:02.229Z,1020.9
2022-08-30T11:40:05.346Z,1021
2022-08-30T11:41:03.156Z,1021
2022-08-30T11:42:02.057Z,1020.9
2022-08-30T11:43:01.861Z,1020.8
2022-08-30T11:44:03.121Z,1020.9
2022-08-30T11:45:02.992Z,1020.9
2022-08-30T11:46:06.130Z,1020.9
2022-08-30T11:47:05.495Z,1020.8
2022-08-30T11:48:05.185Z,1020.9
2022-08-30T11:49:02.025Z,1020.8
2022-08-30T11:50:11.160Z,1020.8
2022-08-30T11:51:03.111Z,1020.8
2022-08-30T11:52:29.079Z,1020.8
2022-08-30T11:53:02.251Z,1020.8
2022-08-30T11:54:02.572Z,1020.8
2022-08-30T11:55:01.821Z,1020.8
2022-08-30T11:56:03.307Z,1020.9
2022-08-30T11:57:02.565Z,1020.9
2022-08-30T11:58:03.664Z,1020.9
2022-08-30T11:59:02.158Z,1020.9
2022-08-30T12:00:02.079Z,1020.8
2022-08-30T12:01:02.685Z,1020.9
2022-08-30T12:02:02.900Z,1020.9
2022-08-30T12:03:03.421Z,1020.8
2022-08-30T12:04:03.073Z,1020.8
2022-08-30T12:05:02.032Z,1020.8
2022-08-30T12:06:01.847Z,1020.8
2022-08-30T12:07:02.815Z,1020.7
2022-08-30T12:08:02.290Z,1020.8
2022-08-30T12:09:08.566Z,1020.7
2022-08-30T12:10:02.903Z,1020.7
2022-08-30T12:11:02.736Z,1020.7
2022-08-30T12:12:02.936Z,1020.7
2022-08-30T12:13:02.796Z,1020.7
2022-08-30T12:14:02.712Z,1020.8
2022-08-30T12:15:03.950Z,1020.7
2022-08-30T12:16:03.958Z,1020.8
2022-08-30T12:17:02.260Z,1020.8
2022-08-30T12:18:02.621Z,1020.8
2022-08-30T12:19:02.459Z,1020.8
2022-08-30T12:20:02.594Z,1020.7
2022-08-30T12:21:02.722Z,1020.8
2022-08-30T12:22:02.516Z,1020.7
2022-08-30T12:23:02.553Z,1020.8
2022-08-30T12:24:04.754Z,1020.7
2022-08-30T12:25:06.320Z,1020.7
2022-08-30T12:26:02.164Z,1020.7
2022-08-30T12:27:02.156Z,1020.6
2022-08-30T12:28:03.997Z,1020.7
2022-08-30T12:29:02.257Z,1020.7
2022-08-30T12:30:04.347Z,1020.7
2022-08-30T12:31:01.832Z,1020.7
2022-08-30T12:32:05.972Z,1020.7